createdAt,value
2023-04-19T00:01:44.826Z,11.70
2023-04-19T00:04:47.497Z,11.77
2023-04-19T00:07:49.252Z,11.70
2023-04-19T00:10:50.618Z,11.73
2023-04-19T00:13:52.091Z,11.73
2023-04-19T00:16:53.521Z,11.62
2023-04-19T00:19:55.048Z,11.59
2023-04-19T00:22:58.355Z,11.65
2023-04-19T00:26:03.877Z,11.67
2023-04-19T00:29:05.261Z,11.73
2023-04-19T00:32:08.633Z,11.70
2023-04-19T00:35:10.091Z,11.61
2023-04-19T00:38:11.591Z,11.54
2023-04-19T00:41:13.048Z,11.53
2023-04-19T00:44:14.872Z,11.54
2023-04-19T00:47:17.198Z,11.51
2023-04-19T00:50:20.456Z,11.51
2023-04-19T00:53:21.840Z,11.47
2023-04-19T00:56:24.634Z,11.44
2023-04-19T00:59:27.624Z,11.45
2023-04-19T01:02:29.157Z,11.42
2023-04-19T01:05:30.956Z,11.41
2023-04-19T01:08:32.362Z,11.51
2023-04-19T01:11:34.013Z,11.42
2023-04-19T01:14:35.487Z,11.39
2023-04-19T01:17:37.367Z,11.37
2023-04-19T01:20:40.511Z,11.37
2023-04-19T01:23:41.985Z,11.36
2023-04-19T01:26:43.384Z,11.36
2023-04-19T01:29:44.807Z,11.33
2023-04-19T01:32:46.400Z,11.38
2023-04-19T01:35:48.268Z,11.38
2023-04-19T01:38:49.899Z,11.39
2023-04-19T01:41:51.308Z,11.43
2023-04-19T01:44:52.688Z,11.45
2023-04-19T01:47:55.911Z,11.50
2023-04-19T01:50:57.335Z,11.51
2023-04-19T01:53:58.786Z,11.49
2023-04-19T01:57:00.163Z,11.47
2023-04-19T02:00:02.537Z,11.46
2023-04-19T02:03:04.301Z,11.42
2023-04-19T02:06:05.994Z,11.45
2023-04-19T02:09:08.204Z,11.48
2023-04-19T02:12:09.618Z,11.49
2023-04-19T02:15:11.106Z,11.51
2023-04-19T02:18:13.449Z,11.47
2023-04-19T02:21:15.126Z,11.41
2023-04-19T02:24:16.868Z,11.33
2023-04-19T02:27:18.620Z,11.31
2023-04-19T02:30:20.199Z,11.33
2023-04-19T02:33:22.414Z,11.36
2023-04-19T02:36:23.927Z,11.37
2023-04-19T02:39:25.318Z,11.40
2023-04-19T02:42:26.694Z,11.25
2023-04-19T02:45:28.323Z,11.18
2023-04-19T02:48:29.751Z,11.12
2023-04-19T02:51:31.274Z,11.14
2023-04-19T02:54:33.757Z,11.23
2023-04-19T02:57:35.377Z,11.19
2023-04-19T03:00:37.519Z,11.07
2023-04-19T03:03:44.201Z,11.07
2023-04-19T03:06:45.870Z,11.08
2023-04-19T03:09:47.957Z,11.04
2023-04-19T03:12:49.490Z,11.06
2023-04-19T03:15:51.028Z,11.09
2023-04-19T03:18:56.345Z,11.10
2023-04-19T03:22:01.290Z,11.07
2023-04-19T03:25:05.743Z,11.09
2023-04-19T03:28:07.210Z,11.07
2023-04-19T03:31:34.325Z,10.99
2023-04-19T03:34:35.987Z,11.05
2023-04-19T03:37:37.451Z,11.00
2023-04-19T03:40:39.698Z,10.97
2023-04-19T03:43:43.867Z,10.95
2023-04-19T03:46:46.543Z,10.96
2023-04-19T03:49:50.247Z,10.97
2023-04-19T03:52:52.627Z,11.01
2023-04-19T03:55:54.060Z,10.96
2023-04-19T03:58:56.333Z,11.00
2023-04-19T04:01:57.770Z,11.07
2023-04-19T04:04:59.384Z,11.03
2023-04-19T04:08:00.984Z,10.99
2023-04-19T04:11:02.403Z,10.99
2023-04-19T04:14:04.646Z,10.99
2023-04-19T04:17:10.745Z,11.00
2023-04-19T04:20:13.725Z,10.98
2023-04-19T04:23:16.400Z,10.99
2023-04-19T04:26:25.249Z,11.02
2023-04-19T04:29:56.660Z,11.06
2023-04-19T04:32:58.918Z,10.99
2023-04-19T04:36:01.249Z,10.89
2023-04-19T04:39:11.812Z,10.85
2023-04-19T04:42:13.430Z,10.93
2023-04-19T04:45:18.228Z,10.98
2023-04-19T04:48:19.951Z,10.99
2023-04-19T04:51:21.501Z,11.01
2023-04-19T04:54:27.098Z,11.00
2023-04-19T04:57:29.332Z,10.89
2023-04-19T05:00:31.970Z,10.85
2023-04-19T05:03:38.332Z,10.84
2023-04-19T05:06:44.456Z,10.86
2023-04-19T05:09:46.447Z,10.87
2023-04-19T05:12:52.499Z,10.88
2023-04-19T05:15:54.214Z,10.94
2023-04-19T05:18:56.329Z,10.95
2023-04-19T05:21:59.354Z,11.02
2023-04-19T05:25:02.017Z,11.13
2023-04-19T05:28:04.278Z,11.06
2023-04-19T05:31:15.086Z,11.02
2023-04-19T05:34:26.463Z,11.05
2023-04-19T05:37:30.517Z,11.13
2023-04-19T05:40:32.101Z,11.21
2023-04-19T05:43:33.578Z,11.30
2023-04-19T05:46:36.310Z,11.31
2023-04-19T05:49:38.420Z,11.44
2023-04-19T05:52:57.189Z,11.50
2023-04-19T05:55:59.012Z,11.59
2023-04-19T05:59:01.015Z,11.66
2023-04-19T06:02:02.977Z,11.68
2023-04-19T06:05:09.940Z,11.58
2023-04-19T06:08:16.135Z,11.63
2023-04-19T06:11:24.903Z,11.71
2023-04-19T06:14:29.261Z,11.79
2023-04-19T06:17:31.521Z,11.78
2023-04-19T06:20:32.897Z,11.67
2023-04-19T06:23:34.511Z,11.72
2023-04-19T06:26:36.021Z,11.85
2023-04-19T06:29:37.558Z,12.02
2023-04-19T06:32:38.971Z,12.23
2023-04-19T06:35:40.574Z,12.37
2023-04-19T06:38:44.409Z,12.40
2023-04-19T06:41:45.928Z,12.30
2023-04-19T06:44:51.159Z,12.23
2023-04-19T06:47:52.586Z,12.29
2023-04-19T06:50:54.564Z,12.46
2023-04-19T06:53:55.990Z,12.40
2023-04-19T06:56:57.417Z,12.53
2023-04-19T06:59:59.092Z,12.65
2023-04-19T07:03:01.306Z,12.83
2023-04-19T07:06:03.128Z,12.98
2023-04-19T07:09:05.823Z,13.10
2023-04-19T07:12:07.233Z,13.16
2023-04-19T07:15:09.251Z,13.44
2023-04-19T07:18:11.126Z,13.75
2023-04-19T07:21:13.402Z,13.77
2023-04-19T07:24:15.167Z,13.62
2023-04-19T07:27:16.791Z,13.52
2023-04-19T07:30:18.232Z,13.43
2023-04-19T07:33:19.740Z,13.53
2023-04-19T07:36:21.483Z,13.53
2023-04-19T07:39:22.977Z,13.59
2023-04-19T07:42:25.348Z,13.39
2023-04-19T07:45:26.860Z,13.24
2023-04-19T07:48:28.290Z,13.34
2023-04-19T07:51:29.731Z,13.32
2023-04-19T07:54:32.155Z,13.39
2023-04-19T07:57:35.067Z,13.43
2023-04-19T08:00:37.757Z,13.38
2023-04-19T08:03:39.554Z,13.27
2023-04-19T08:06:41.570Z,13.31
2023-04-19T08:09:43.118Z,13.32
2023-04-19T08:12:57.365Z,13.02
2023-04-19T08:19:10.723Z,12.57
2023-04-19T08:22:12.235Z,12.45
2023-04-19T08:25:13.804Z,12.42
2023-04-19T08:28:17.116Z,12.45
2023-04-19T08:31:20.788Z,12.48
2023-04-19T08:34:22.363Z,12.34
2023-04-19T08:37:23.778Z,12.37
2023-04-19T08:40:25.274Z,12.37
2023-04-19T08:43:33.250Z,12.43
2023-04-19T08:46:35.330Z,12.51
2023-04-19T08:49:41.386Z,12.71
2023-04-19T08:52:54.816Z,12.80
2023-04-19T08:59:15.578Z,12.95
2023-04-19T09:02:19.810Z,13.04
2023-04-19T09:05:21.917Z,13.12
2023-04-19T09:08:28.976Z,13.12
2023-04-19T09:11:38.714Z,13.23
2023-04-19T09:14:53.729Z,13.51
2023-04-19T09:18:07.856Z,13.58
2023-04-19T09:21:09.706Z,13.63
2023-04-19T09:24:12.207Z,13.79
2023-04-19T09:27:19.493Z,13.73
2023-04-19T09:30:32.436Z,13.92
2023-04-19T09:33:40.552Z,13.73
2023-04-19T09:36:42.354Z,13.74
2023-04-19T09:39:43.753Z,13.92
2023-04-19T09:45:53.620Z,14.33
2023-04-19T09:48:55.329Z,14.19
2023-04-19T09:51:57.214Z,14.25
2023-04-19T09:55:03.141Z,14.14
2023-04-19T09:58:07.999Z,14.20
2023-04-19T10:01:15.452Z,13.98
2023-04-19T10:04:37.761Z,13.90
2023-04-19T10:07:44.287Z,13.94
2023-04-19T10:10:47.368Z,13.93
2023-04-19T10:13:51.716Z,13.96
2023-04-19T10:16:53.218Z,13.91
2023-04-19T10:20:06.773Z,13.67
2023-04-19T10:23:09.302Z,13.42
2023-04-19T10:26:11.175Z,13.27
2023-04-19T10:29:13.109Z,13.16
2023-04-19T10:32:14.842Z,13.13
2023-04-19T10:35:20.936Z,13.12
2023-04-19T10:38:47.853Z,13.12
2023-04-19T10:41:59.368Z,13.13
2023-04-19T10:45:32.479Z,13.22
2023-04-19T10:48:37.885Z,13.18
2023-04-19T10:51:43.141Z,13.19
2023-04-19T10:54:44.787Z,13.11
2023-04-19T10:58:07.638Z,12.97
2023-04-19T11:01:47.262Z,12.86
2023-04-19T11:04:48.745Z,12.86
2023-04-19T11:07:50.242Z,12.82
2023-04-19T11:10:53.352Z,12.73
2023-04-19T11:13:56.536Z,12.81
2023-04-19T11:16:58.201Z,12.88
2023-04-19T11:20:08.311Z,12.79
2023-04-19T11:23:17.810Z,12.91
2023-04-19T11:26:19.220Z,12.94
2023-04-19T11:29:21.741Z,13.00
2023-04-19T11:32:23.252Z,12.98
2023-04-19T11:35:26.637Z,12.99
2023-04-19T11:38:28.720Z,12.93
2023-04-19T11:41:30.132Z,12.94
2023-04-19T11:44:31.781Z,12.96
2023-04-19T11:47:33.787Z,12.96
2023-04-19T11:50:39.831Z,13.06
2023-04-19T11:53:41.462Z,13.09
2023-04-19T11:56:59.597Z,13.07
2023-04-19T12:00:08.239Z,13.08
2023-04-19T12:03:16.338Z,13.18
2023-04-19T12:06:26.704Z,13.20
2023-04-19T12:09:28.151Z,13.16
2023-04-19T12:12:32.789Z,13.20
2023-04-19T12:15:44.860Z,13.35
2023-04-19T12:18:50.351Z,13.35
2023-04-19T12:21:51.749Z,13.48
2023-04-19T12:24:54.289Z,13.48
2023-04-19T12:27:56.254Z,13.47
2023-04-19T12:30:57.713Z,13.48
2023-04-19T12:33:59.183Z,13.50
2023-04-19T12:37:00.823Z,13.56
2023-04-19T12:40:02.186Z,13.69
2023-04-19T12:43:05.988Z,13.88
2023-04-19T12:46:07.555Z,13.92
2023-04-19T12:49:08.958Z,13.96
2023-04-19T12:52:10.418Z,14.26
2023-04-19T12:55:11.860Z,14.59
2023-04-19T12:58:14.050Z,15.02
2023-04-19T13:01:16.180Z,15.10
2023-04-19T13:04:18.334Z,15.09
2023-04-19T13:07:20.059Z,14.85
2023-04-19T13:10:21.424Z,15.06
2023-04-19T13:13:22.869Z,15.34
2023-04-19T13:16:24.318Z,15.57
2023-04-19T13:19:26.718Z,15.51
2023-04-19T13:22:28.282Z,15.77
2023-04-19T13:25:29.656Z,16.04
2023-04-19T13:28:31.081Z,16.22
2023-04-19T13:31:32.591Z,16.04
2023-04-19T13:34:35.194Z,16.04
2023-04-19T13:37:36.557Z,16.27
2023-04-19T13:40:38.260Z,16.35
2023-04-19T13:43:39.834Z,16.47
2023-04-19T13:46:41.342Z,16.25
2023-04-19T13:49:42.931Z,16.05
2023-04-19T13:52:44.339Z,15.93
2023-04-19T13:55:45.704Z,15.82
2023-04-19T13:58:47.184Z,16.10
2023-04-19T14:01:48.671Z,16.00
2023-04-19T14:04:50.158Z,15.95
2023-04-19T14:07:52.356Z,15.54
2023-04-19T14:10:53.780Z,15.41
2023-04-19T14:13:55.853Z,15.14
2023-04-19T14:16:57.480Z,15.30
2023-04-19T14:19:58.857Z,15.17
2023-04-19T14:23:00.295Z,15.04
2023-04-19T14:26:02.007Z,15.60
2023-04-19T14:29:03.408Z,16.06
2023-04-19T14:32:20.824Z,16.26
2023-04-19T14:35:26.137Z,16.46
2023-04-19T14:38:27.779Z,16.26
2023-04-19T14:41:29.221Z,16.03
2023-04-19T14:44:30.590Z,15.61
2023-04-19T14:47:32.044Z,15.40
2023-04-19T14:50:33.441Z,15.32
2023-04-19T14:53:34.854Z,15.07
2023-04-19T14:56:38.096Z,14.87
2023-04-19T14:59:39.582Z,14.68
2023-04-19T15:02:41.230Z,14.11
2023-04-19T15:05:44.494Z,13.76
2023-04-19T15:08:46.971Z,13.28
2023-04-19T15:11:48.450Z,13.35
2023-04-19T15:14:49.891Z,13.39
2023-04-19T15:17:52.396Z,13.59
2023-04-19T15:20:54.673Z,14.03
2023-04-19T15:23:56.102Z,14.56
2023-04-19T15:26:58.685Z,14.60
2023-04-19T15:30:00.351Z,14.52
2023-04-19T15:33:01.795Z,14.38
2023-04-19T15:36:03.860Z,14.37
2023-04-19T15:39:05.859Z,14.30
2023-04-19T15:42:07.272Z,14.37
2023-04-19T15:45:09.437Z,14.39
2023-04-19T15:48:11.446Z,14.48
2023-04-19T15:51:15.288Z,14.53
2023-04-19T15:54:16.710Z,14.51
2023-04-19T15:57:18.739Z,14.40
2023-04-19T16:00:21.335Z,14.12
2023-04-19T16:03:23.386Z,13.98
2023-04-19T16:06:25.123Z,13.97
2023-04-19T16:09:27.035Z,14.14
2023-04-19T16:12:28.578Z,13.99
2023-04-19T16:15:30.318Z,14.04
2023-04-19T16:18:31.727Z,14.05
2023-04-19T16:21:33.230Z,14.10
2023-04-19T16:24:34.627Z,14.10
2023-04-19T16:27:35.989Z,14.08
2023-04-19T16:30:37.599Z,14.04
2023-04-19T16:33:39.104Z,14.09
2023-04-19T16:36:44.592Z,14.03
2023-04-19T16:39:46.143Z,14.03
2023-04-19T16:42:47.618Z,14.09
2023-04-19T16:45:49.253Z,14.09
2023-04-19T16:48:50.767Z,14.12
2023-04-19T16:51:52.212Z,14.13
2023-04-19T16:54:54.057Z,14.15
2023-04-19T16:57:55.965Z,14.18
2023-04-19T17:00:58.252Z,14.22
2023-04-19T17:04:00.148Z,14.19
2023-04-19T17:07:01.771Z,14.22
2023-04-19T17:10:03.380Z,14.20
2023-04-19T17:13:05.351Z,14.16
2023-04-19T17:16:07.341Z,14.07
2023-04-19T17:19:08.804Z,14.10
2023-04-19T17:22:11.529Z,14.12
2023-04-19T17:25:12.912Z,14.07
2023-04-19T17:28:14.311Z,14.01
2023-04-19T17:31:15.800Z,13.96
2023-04-19T17:34:18.402Z,13.97
2023-04-19T17:37:19.998Z,13.85
2023-04-19T17:40:21.420Z,13.78
2023-04-19T17:43:23.203Z,13.65
2023-04-19T17:46:24.673Z,13.59
2023-04-19T17:49:26.986Z,13.54
2023-04-19T17:52:28.466Z,13.38
2023-04-19T17:55:29.851Z,13.22
2023-04-19T17:58:31.421Z,13.15
2023-04-19T18:01:34.887Z,13.03
2023-04-19T18:04:36.605Z,12.91
2023-04-19T18:07:38.193Z,12.78
2023-04-19T18:10:39.583Z,12.71
2023-04-19T18:13:42.353Z,12.68
2023-04-19T18:16:44.915Z,12.63
2023-04-19T18:19:46.900Z,12.60
2023-04-19T18:22:50.143Z,12.48
2023-04-19T18:25:55.351Z,12.40
2023-04-19T18:28:56.918Z,12.34
2023-04-19T18:31:58.606Z,12.19
2023-04-19T18:35:00.230Z,12.02
2023-04-19T18:38:01.903Z,12.03
2023-04-19T18:41:03.402Z,11.99
2023-04-19T18:47:09.266Z,11.75
2023-04-19T18:50:11.834Z,11.68
2023-04-19T18:53:13.302Z,11.66
2023-04-19T18:56:16.844Z,11.78
2023-04-19T18:59:18.614Z,11.76
2023-04-19T19:02:20.305Z,11.72
2023-04-19T19:05:21.996Z,11.64
2023-04-19T19:08:23.802Z,11.56
2023-04-19T19:14:35.435Z,11.45
2023-04-19T19:17:36.894Z,11.44
2023-04-19T19:20:38.299Z,11.37
2023-04-19T19:23:42.448Z,11.35
2023-04-19T19:26:44.383Z,11.31
2023-04-19T19:29:46.913Z,11.29
2023-04-19T19:32:49.212Z,11.29
2023-04-19T19:35:51.044Z,11.28
2023-04-19T19:38:52.555Z,11.27
2023-04-19T19:42:04.620Z,11.19
2023-04-19T19:45:09.218Z,11.13
2023-04-19T19:48:10.753Z,10.99
2023-04-19T19:51:47.589Z,10.89
2023-04-19T19:54:34.414Z,10.90
2023-04-19T20:00:47.003Z,10.78
2023-04-19T20:03:49.979Z,10.72
2023-04-19T20:09:56.083Z,10.43
2023-04-19T20:12:58.371Z,10.40
2023-04-19T20:16:00.654Z,10.39
2023-04-19T20:19:09.702Z,10.40
2023-04-19T20:22:11.777Z,10.27
2023-04-19T20:25:13.483Z,10.22
2023-04-19T20:28:15.298Z,10.22
2023-04-19T20:31:16.696Z,10.20
2023-04-19T20:34:21.657Z,10.18
2023-04-19T20:37:24.020Z,10.02
2023-04-19T20:40:26.135Z,9.98
2023-04-19T20:43:27.516Z,9.89
2023-04-19T20:46:28.917Z,9.83
2023-04-19T20:49:30.891Z,9.77
2023-04-19T20:52:32.570Z,9.61
2023-04-19T20:55:34.038Z,9.59
2023-04-19T20:58:35.862Z,9.58
2023-04-19T21:01:37.370Z,9.60
2023-04-19T21:04:38.820Z,9.43
2023-04-19T21:07:40.316Z,9.36
2023-04-19T21:10:41.694Z,9.24
2023-04-19T21:13:43.444Z,9.20
2023-04-19T21:16:45.001Z,9.15
2023-04-19T21:19:46.507Z,9.12
2023-04-19T21:22:48.551Z,9.12
2023-04-19T21:25:50.241Z,9.13
2023-04-19T21:28:51.903Z,9.13
2023-04-19T21:31:53.338Z,9.17
2023-04-19T21:34:54.879Z,9.17
2023-04-19T21:37:56.246Z,9.04
2023-04-19T21:40:57.623Z,9.02
2023-04-19T21:43:59.010Z,9.00
2023-04-19T21:47:01.119Z,8.98
2023-04-19T21:50:03.067Z,8.87
2023-04-19T21:53:04.508Z,8.88
2023-04-19T21:56:06.134Z,8.92
2023-04-19T21:59:07.508Z,8.91
2023-04-19T22:02:09.107Z,8.80
2023-04-19T22:05:10.683Z,8.73
2023-04-19T22:08:12.140Z,8.74
2023-04-19T22:11:13.495Z,8.72
2023-04-19T22:14:14.903Z,8.71
2023-04-19T22:17:18.753Z,8.67
2023-04-19T22:20:21.069Z,8.53
2023-04-19T22:23:22.469Z,8.52
2023-04-19T22:26:25.973Z,8.52
2023-04-19T22:29:27.387Z,8.45
2023-04-19T22:32:28.803Z,8.42
2023-04-19T22:35:30.337Z,8.43
2023-04-19T22:38:32.089Z,8.39
2023-04-19T22:41:33.469Z,8.26
2023-04-19T22:44:34.926Z,8.08
2023-04-19T22:47:37.173Z,8.09
2023-04-19T22:50:38.740Z,8.04
2023-04-19T22:53:40.255Z,8.05
2023-04-19T22:56:41.649Z,8.10
2023-04-19T22:59:43.075Z,7.99
2023-04-19T23:02:44.607Z,8.01
2023-04-19T23:05:47.130Z,7.96
2023-04-19T23:08:48.603Z,8.13
2023-04-19T23:11:50.253Z,8.28
2023-04-19T23:14:51.773Z,8.31
2023-04-19T23:17:53.234Z,8.27
2023-04-19T23:20:54.652Z,8.29
2023-04-19T23:23:56.032Z,8.15
2023-04-19T23:26:57.400Z,8.16
2023-04-19T23:29:58.867Z,8.17
2023-04-19T23:33:00.655Z,8.15
2023-04-19T23:36:02.058Z,8.06
2023-04-19T23:39:04.971Z,8.12
2023-04-19T23:42:06.508Z,8.22
2023-04-19T23:45:08.923Z,8.27
2023-04-19T23:48:10.303Z,8.28
2023-04-19T23:51:12.523Z,8.42
2023-04-19T23:54:13.963Z,8.40
2023-04-19T23:57:15.714Z,8.21
